Time;durP1;ratioP1;P1;durP2;ratioP2;P2;SDS_P1;SDS_P2;PMS_P1;PMS_P2;Temp;Humidity;BMP_temperature;BMP_pressure;BME280_temperature;BME280_humidity;BME280_pressure;Samples;Min_cycle;Max_cycle;Signal;HPM_P1;HPM_P2
2024/01/20 00:01:14;;;;;;;2.65;2.42;;;21.60;45.30;;;;;;4960382;28;92751;-65
2024/01/20 00:03:40;;;;;;;4.18;3.10;;;21.50;45.10;;;;;;4943371;28;94034;-64
2024/01/20 00:06:06;;;;;;;3.95;2.97;;;21.50;45.00;;;;;;4944022;28;93852;-64
2024/01/20 00:08:32;;;;;;;3.42;2.47;;;21.50;45.10;;;;;;4962875;28;92800;-65
2024/01/20 00:10:59;;;;;;;2.95;2.42;;;21.50;45.10;;;;;;4960045;28;92751;-65
2024/01/20 00:13:24;;;;;;;3.20;2.75;;;21.40;45.20;;;;;;4951270;28;94907;-65
2024/01/20 00:15:50;;;;;;;2.97;2.47;;;21.40;45.20;;;;;;4954149;28;93854;-65
2024/01/20 00:18:16;;;;;;;3.17;2.53;;;21.40;45.40;;;;;;4955255;28;92375;-65
2024/01/20 00:20:42;;;;;;;3.70;2.63;;;21.30;45.30;;;;;;4958109;28;92314;-65
2024/01/20 00:23:08;;;;;;;3.38;2.30;;;21.30;45.20;;;;;;4932322;28;98728;-64
2024/01/20 00:25:34;;;;;;;3.38;2.88;;;21.30;45.40;;;;;;4948025;28;94823;-65
2024/01/20 00:28:00;;;;;;;4.10;2.67;;;21.30;45.30;;;;;;4948054;28;92185;-64
2024/01/20 00:30:27;;;;;;;4.47;2.72;;;21.20;45.40;;;;;;4944217;28;91720;-64
2024/01/20 00:32:52;;;;;;;3.88;2.67;;;21.20;45.20;;;;;;4950478;28;94131;-64
2024/01/20 00:35:18;;;;;;;3.28;2.20;;;21.20;45.60;;;;;;4958642;28;92020;-65
2024/01/20 00:37:44;;;;;;;4.00;3.10;;;21.20;45.50;;;;;;4944953;28;93814;-64
2024/01/20 00:40:11;;;;;;;5.25;3.03;;;21.10;45.30;;;;;;4946936;28;92955;-64
2024/01/20 00:42:37;;;;;;;4.10;2.75;;;21.10;45.50;;;;;;4954182;28;92936;-65
2024/01/20 00:45:04;;;;;;;3.42;2.80;;;21.10;45.60;;;;;;4945507;28;93045;-64
2024/01/20 00:47:30;;;;;;;3.50;2.70;;;21.10;45.40;;;;;;4946265;28;93004;-64
2024/01/20 00:49:56;;;;;;;4.88;3.20;;;21.10;45.50;;;;;;4965107;28;93395;-64
2024/01/20 00:52:22;;;;;;;3.67;2.95;;;21.00;45.50;;;;;;4945695;28;93057;-64
2024/01/20 00:54:49;;;;;;;4.40;2.63;;;21.00;45.60;;;;;;4951883;28;92810;-64
2024/01/20 00:57:15;;;;;;;4.47;2.70;;;21.00;45.50;;;;;;4970155;28;92440;-65
2024/01/20 00:59:41;;;;;;;3.45;2.30;;;21.00;45.60;;;;;;4957372;28;92536;-64
2024/01/20 01:02:06;;;;;;;3.28;2.25;;;21.00;45.50;;;;;;4953393;28;94059;-65
2024/01/20 01:04:32;;;;;;;3.03;2.33;;;20.90;45.60;;;;;;4950654;28;93230;-65
2024/01/20 01:06:58;;;;;;;3.17;2.53;;;20.90;45.50;;;;;;4952242;28;92624;-65
2024/01/20 01:09:24;;;;;;;3.70;2.92;;;20.90;45.50;;;;;;4950482;28;92400;-65
2024/01/20 01:11:50;;;;;;;3.08;2.20;;;20.80;45.50;;;;;;4946061;28;93074;-64
2024/01/20 01:14:15;;;;;;;2.97;2.63;;;20.80;45.70;;;;;;4947961;28;92644;-65
2024/01/20 01:16:41;;;;;;;3.03;2.42;;;20.80;45.60;;;;;;4946004;28;92647;-64
2024/01/20 01:19:07;;;;;;;2.22;2.03;;;20.80;45.60;;;;;;4929173;28;92279;-65
2024/01/20 01:21:32;;;;;;;3.65;2.70;;;20.80;45.80;;;;;;4945875;28;93121;-65
2024/01/20 01:23:58;;;;;;;3.00;2.45;;;20.80;45.70;;;;;;4950677;28;93567;-64
2024/01/20 01:26:24;;;;;;;4.28;2.65;;;20.70;45.70;;;;;;4960067;28;93739;-65
2024/01/20 01:28:49;;;;;;;2.90;2.42;;;20.70;45.60;;;;;;4957881;28;93019;-65
2024/01/20 01:31:15;;;;;;;4.07;3.35;;;20.70;45.70;;;;;;4952047;28;93027;-65
2024/01/20 01:33:41;;;;;;;3.83;2.95;;;20.70;45.80;;;;;;4963069;28;95550;-65
2024/01/20 01:36:07;;;;;;;3.53;2.72;;;20.70;45.70;;;;;;4950067;28;93848;-65
2024/01/20 01:38:32;;;;;;;3.58;2.90;;;20.70;45.90;;;;;;4957822;28;91967;-65
2024/01/20 01:40:59;;;;;;;3.50;2.53;;;20.60;46.00;;;;;;4948328;28;93197;-65
2024/01/20 01:43:25;;;;;;;3.28;2.40;;;20.60;45.90;;;;;;4947558;28;93244;-65
2024/01/20 01:45:52;;;;;;;3.40;2.75;;;20.60;45.50;;;;;;4947665;28;92553;-65
2024/01/20 01:48:19;;;;;;;3.95;2.60;;;20.60;45.70;;;;;;4960583;28;92849;-64
2024/01/20 01:50:44;;;;;;;2.95;2.10;;;20.50;45.90;;;;;;4954523;28;94142;-63
2024/01/20 01:53:12;;;;;;;4.68;2.97;;;20.50;45.80;;;;;;4963714;28;94391;-64
2024/01/20 01:55:39;;;;;;;2.97;2.15;;;20.50;46.00;;;;;;4947280;28;92803;-65
2024/01/20 01:58:05;;;;;;;3.53;2.63;;;20.50;45.80;;;;;;4962870;28;92463;-65
2024/01/20 02:00:31;;;;;;;3.63;2.80;;;20.50;45.80;;;;;;4948839;28;93630;-65
2024/01/20 02:02:57;;;;;;;3.25;2.30;;;20.50;45.80;;;;;;4946111;28;92682;-64
2024/01/20 02:05:23;;;;;;;3.35;2.65;;;20.40;45.70;;;;;;4950012;28;92334;-64
2024/01/20 02:07:50;;;;;;;3.70;2.80;;;20.40;45.90;;;;;;4947427;28;91586;-64
2024/01/20 02:10:18;;;;;;;3.08;2.60;;;20.40;45.70;;;;;;4961862;28;93805;-64
2024/01/20 02:12:45;;;;;;;3.88;2.17;;;20.40;45.80;;;;;;4946538;28;93935;-64
2024/01/20 02:15:12;;;;;;;4.05;2.70;;;20.40;45.70;;;;;;4953246;28;92975;-64
2024/01/20 02:17:54;;;;;;;3.30;2.80;;;20.40;45.70;;;;;;4963933;28;92386;-64
2024/01/20 02:20:21;;;;;;;3.45;2.60;;;20.40;45.80;;;;;;4948407;28;97538;-65
2024/01/20 02:22:47;;;;;;;3.10;2.78;;;20.30;45.80;;;;;;4951356;28;93125;-65
2024/01/20 02:25:13;;;;;;;3.50;2.78;;;20.30;45.80;;;;;;4947631;28;92563;-64
2024/01/20 02:27:39;;;;;;;3.08;2.42;;;20.30;45.90;;;;;;4966732;28;92477;-65
2024/01/20 02:30:06;;;;;;;2.95;2.65;;;20.30;45.90;;;;;;4954073;28;93565;-64
2024/01/20 02:32:31;;;;;;;4.03;2.65;;;20.30;45.80;;;;;;4955972;28;92224;-65
2024/01/20 02:34:58;;;;;;;2.78;2.45;;;20.20;46.00;;;;;;4946518;28;92827;-65
2024/01/20 02:37:24;;;;;;;3.28;2.63;;;20.20;45.80;;;;;;4958549;28;92290;-65
2024/01/20 02:39:49;;;;;;;3.67;2.67;;;20.20;45.80;;;;;;4949079;28;95844;-64
2024/01/20 02:42:15;;;;;;;2.83;2.35;;;20.20;45.80;;;;;;4952940;28;93803;-65
2024/01/20 02:44:42;;;;;;;3.30;2.42;;;20.20;45.90;;;;;;4963871;28;92680;-64
2024/01/20 02:47:09;;;;;;;4.43;2.95;;;20.20;45.80;;;;;;4955600;28;93210;-64
2024/01/20 02:49:35;;;;;;;4.03;2.85;;;20.10;45.90;;;;;;4970727;28;95753;-64
2024/01/20 02:52:01;;;;;;;3.83;2.58;;;20.20;46.00;;;;;;4947371;28;95263;-64
2024/01/20 02:54:27;;;;;;;2.47;2.28;;;20.10;46.00;;;;;;4945492;28;93082;-64
2024/01/20 02:56:52;;;;;;;3.22;2.70;;;20.10;45.90;;;;;;4956525;28;92570;-64
2024/01/20 02:59:19;;;;;;;2.85;2.53;;;20.10;46.10;;;;;;4957698;28;93157;-65
2024/01/20 03:01:46;;;;;;;4.45;2.85;;;20.10;45.90;;;;;;4947098;28;92805;-65
2024/01/20 03:04:13;;;;;;;2.72;2.25;;;20.10;46.00;;;;;;4926789;28;93720;-64
2024/01/20 03:06:39;;;;;;;3.45;2.75;;;20.10;45.90;;;;;;4945675;28;92534;-65
2024/01/20 03:09:06;;;;;;;3.25;2.55;;;20.10;45.90;;;;;;4945836;28;92646;-64
2024/01/20 03:11:31;;;;;;;3.17;2.72;;;20.00;45.90;;;;;;4955930;28;92974;-63
2024/01/20 03:13:57;;;;;;;3.45;2.45;;;20.00;46.00;;;;;;4947770;28;93491;-65
2024/01/20 03:16:23;;;;;;;4.10;2.60;;;20.00;46.00;;;;;;4944434;28;93334;-65
2024/01/20 03:18:49;;;;;;;3.33;2.80;;;20.00;45.90;;;;;;4961053;28;95766;-65
2024/01/20 03:21:15;;;;;;;2.75;2.22;;;20.00;45.90;;;;;;4944150;28;93219;-65
2024/01/20 03:23:42;;;;;;;3.13;2.78;;;20.00;45.90;;;;;;4955571;28;92574;-64
2024/01/20 03:26:10;;;;;;;3.20;2.90;;;20.00;46.00;;;;;;4942327;28;92579;-65
2024/01/20 03:28:40;;;;;;;3.28;2.55;;;20.00;46.10;;;;;;4960267;28;95218;-65
2024/01/20 03:31:06;;;;;;;3.58;2.58;;;19.90;45.80;;;;;;4947670;28;93783;-65
2024/01/20 03:33:34;;;;;;;3.00;2.70;;;20.00;46.00;;;;;;4947776;28;93003;-64
2024/01/20 03:35:59;;;;;;;3.53;2.78;;;19.90;46.00;;;;;;4959064;28;92764;-65
2024/01/20 03:38:25;;;;;;;2.45;2.25;;;19.90;45.90;;;;;;4951911;28;94262;-64
2024/01/20 03:40:51;;;;;;;3.03;2.53;;;19.90;45.90;;;;;;4951685;28;94033;-64
2024/01/20 03:43:17;;;;;;;2.85;2.53;;;19.90;46.00;;;;;;4948158;28;92631;-64
2024/01/20 03:45:44;;;;;;;2.72;2.38;;;19.90;46.10;;;;;;4957014;28;92323;-64
2024/01/20 03:48:10;;;;;;;3.70;2.80;;;19.80;46.00;;;;;;4957143;28;94376;-65
2024/01/20 03:50:36;;;;;;;3.47;2.72;;;19.80;46.20;;;;;;4947685;28;92506;-64
2024/01/20 03:53:01;;;;;;;3.33;2.85;;;19.80;45.90;;;;;;4945273;28;93866;-64
2024/01/20 03:55:27;;;;;;;4.32;2.80;;;19.80;46.10;;;;;;4946514;28;92604;-65
2024/01/20 03:57:53;;;;;;;2.75;2.47;;;19.80;46.10;;;;;;4943858;28;93250;-64
2024/01/20 04:00:19;;;;;;;3.90;3.00;;;19.80;46.10;;;;;;4949297;28;92384;-64
2024/01/20 04:02:44;;;;;;;3.67;2.60;;;19.80;45.90;;;;;;4950785;28;93456;-64
2024/01/20 04:05:10;;;;;;;3.15;2.60;;;19.80;46.00;;;;;;4961014;28;92206;-64
2024/01/20 04:07:37;;;;;;;2.65;2.42;;;19.80;45.90;;;;;;4951172;28;93102;-64
2024/01/20 04:10:03;;;;;;;4.38;2.50;;;19.80;45.80;;;;;;4953209;28;92773;-64
2024/01/20 04:12:29;;;;;;;3.47;2.70;;;19.70;45.90;;;;;;4951302;28;92351;-65
2024/01/20 04:14:58;;;;;;;3.72;2.92;;;19.70;45.80;;;;;;4945030;28;93289;-64
2024/01/20 04:17:24;;;;;;;2.83;2.38;;;19.70;46.00;;;;;;4947755;28;94188;-64
2024/01/20 04:19:50;;;;;;;3.10;2.70;;;19.70;46.00;;;;;;4949519;28;93736;-64
2024/01/20 04:22:16;;;;;;;3.55;2.72;;;19.70;45.90;;;;;;4948761;28;92858;-64
2024/01/20 04:24:41;;;;;;;3.75;2.42;;;19.70;46.10;;;;;;4948571;28;92387;-64
2024/01/20 04:27:08;;;;;;;3.78;3.17;;;19.70;46.00;;;;;;4950650;28;93748;-64
2024/01/20 04:29:34;;;;;;;3.58;2.63;;;19.70;45.90;;;;;;4963541;28;92857;-65
2024/01/20 04:32:00;;;;;;;4.05;2.78;;;19.70;45.90;;;;;;4943316;28;92737;-64
2024/01/20 04:34:26;;;;;;;3.95;3.17;;;19.70;46.00;;;;;;4961757;28;92107;-64
2024/01/20 04:36:51;;;;;;;3.75;2.55;;;19.60;45.70;;;;;;4945305;28;93236;-64
2024/01/20 04:39:17;;;;;;;3.28;2.67;;;19.60;45.90;;;;;;4944520;28;92131;-64
2024/01/20 04:41:42;;;;;;;3.13;2.78;;;19.60;45.90;;;;;;4947867;28;94052;-64
2024/01/20 04:44:08;;;;;;;2.83;2.53;;;19.60;45.90;;;;;;4944250;28;92704;-64
2024/01/20 04:46:34;;;;;;;3.33;2.50;;;19.60;46.00;;;;;;4960420;28;92616;-64
2024/01/20 04:49:00;;;;;;;3.08;2.47;;;19.60;46.00;;;;;;4945266;28;93811;-64
2024/01/20 04:51:26;;;;;;;3.08;2.78;;;19.60;46.00;;;;;;4960805;28;92157;-65
2024/01/20 04:53:52;;;;;;;3.92;2.42;;;19.60;46.00;;;;;;4942560;28;92944;-64
2024/01/20 04:56:22;;;;;;;3.35;2.75;;;19.60;45.70;;;;;;4945053;28;94659;-64
2024/01/20 04:58:53;;;;;;;4.43;2.92;;;19.60;45.90;;;;;;4960295;28;93786;-64
2024/01/20 05:01:19;;;;;;;3.25;2.60;;;19.60;45.70;;;;;;4945598;28;93320;-64
2024/01/20 05:03:45;;;;;;;4.40;3.33;;;19.50;45.80;;;;;;4945543;28;92942;-64
2024/01/20 05:06:11;;;;;;;3.17;2.53;;;19.50;45.90;;;;;;4947593;28;93554;-64
2024/01/20 05:08:37;;;;;;;2.88;2.50;;;19.50;46.10;;;;;;4958054;28;93800;-64
2024/01/20 05:11:03;;;;;;;3.67;3.10;;;19.50;45.90;;;;;;4920153;28;92678;-64
2024/01/20 05:13:29;;;;;;;3.55;3.15;;;19.50;45.80;;;;;;4957845;28;93065;-64
2024/01/20 05:15:56;;;;;;;3.05;2.55;;;19.50;45.90;;;;;;4948959;28;93137;-64
2024/01/20 05:18:22;;;;;;;2.97;2.60;;;19.50;45.50;;;;;;4970704;28;92727;-64
2024/01/20 05:20:48;;;;;;;3.05;2.63;;;19.50;45.70;;;;;;4963668;28;92891;-64
2024/01/20 05:23:14;;;;;;;3.33;2.63;;;19.50;45.50;;;;;;4950772;28;91277;-64
2024/01/20 05:25:42;;;;;;;3.30;2.53;;;19.40;45.30;;;;;;4937497;28;94123;-65
2024/01/20 05:28:07;;;;;;;3.40;3.10;;;19.40;45.40;;;;;;4951767;28;92962;-64
2024/01/20 05:30:33;;;;;;;2.83;2.50;;;19.40;45.40;;;;;;4949135;28;93756;-64
2024/01/20 05:33:00;;;;;;;2.88;2.65;;;19.40;45.40;;;;;;4949954;28;93182;-64
2024/01/20 05:35:25;;;;;;;3.40;2.63;;;19.40;45.40;;;;;;4972046;28;94152;-64
2024/01/20 05:37:51;;;;;;;3.10;2.80;;;19.40;45.50;;;;;;4948652;28;93105;-64
2024/01/20 05:40:17;;;;;;;3.15;2.58;;;19.40;45.50;;;;;;4945369;28;93064;-64
2024/01/20 05:42:43;;;;;;;3.40;2.60;;;19.40;45.50;;;;;;4951876;28;92365;-64
2024/01/20 05:45:10;;;;;;;3.08;2.78;;;19.40;45.40;;;;;;4953940;28;94203;-64
2024/01/20 05:47:36;;;;;;;4.07;2.72;;;19.40;45.30;;;;;;4958974;28;93338;-64
2024/01/20 05:50:05;;;;;;;4.30;3.10;;;19.40;45.40;;;;;;4956598;28;92796;-64
2024/01/20 05:52:31;;;;;;;4.55;2.97;;;19.40;45.50;;;;;;4949681;28;93545;-64
2024/01/20 05:54:57;;;;;;;3.38;2.67;;;19.40;45.50;;;;;;4967133;28;95863;-64
2024/01/20 05:57:23;;;;;;;3.22;2.85;;;19.40;45.50;;;;;;4955424;28;93004;-64
2024/01/20 05:59:50;;;;;;;3.00;2.70;;;19.40;45.50;;;;;;4956179;28;92091;-64
2024/01/20 06:02:15;;;;;;;3.47;2.65;;;19.40;45.20;;;;;;4949302;28;92081;-64
2024/01/20 06:04:41;;;;;;;3.13;2.83;;;19.40;45.40;;;;;;4949768;28;95578;-63
2024/01/20 06:07:07;;;;;;;3.10;2.60;;;19.40;45.30;;;;;;4950450;28;93480;-64
2024/01/20 06:09:32;;;;;;;2.90;2.60;;;19.40;45.40;;;;;;4960434;28;93021;-64
2024/01/20 06:11:58;;;;;;;3.03;2.72;;;19.30;45.30;;;;;;4949430;28;91620;-64
2024/01/20 06:14:24;;;;;;;3.47;2.75;;;19.30;45.30;;;;;;4956183;28;94193;-64
2024/01/20 06:16:50;;;;;;;3.17;2.67;;;19.30;45.30;;;;;;4961501;28;93026;-64
2024/01/20 06:19:17;;;;;;;4.03;2.75;;;19.30;45.30;;;;;;4960393;28;93942;-63
2024/01/20 06:21:43;;;;;;;3.22;2.80;;;19.30;45.30;;;;;;4950276;28;92552;-63
2024/01/20 06:24:09;;;;;;;2.97;2.60;;;19.30;45.40;;;;;;4954352;28;93746;-63
2024/01/20 06:26:35;;;;;;;3.53;2.65;;;19.30;45.30;;;;;;4956023;28;92801;-64
2024/01/20 06:29:02;;;;;;;2.97;2.67;;;19.30;45.50;;;;;;4949723;28;92309;-63
2024/01/20 06:31:28;;;;;;;3.67;2.72;;;19.30;45.50;;;;;;4954486;28;92301;-64
2024/01/20 06:33:55;;;;;;;3.05;2.58;;;19.30;45.30;;;;;;4963503;28;94914;-63
2024/01/20 06:36:24;;;;;;;4.13;3.17;;;19.30;45.30;;;;;;4944248;28;94066;-63
2024/01/20 06:38:51;;;;;;;3.40;2.97;;;19.30;45.10;;;;;;4946557;28;92321;-63
2024/01/20 06:41:18;;;;;;;3.50;2.47;;;19.30;45.30;;;;;;4931296;28;92718;-63
2024/01/20 06:43:44;;;;;;;3.80;2.55;;;19.30;45.30;;;;;;4959883;28;95214;-63
2024/01/20 06:46:10;;;;;;;2.85;2.35;;;19.30;45.30;;;;;;4944762;28;92805;-62
2024/01/20 06:48:36;;;;;;;2.47;2.28;;;19.30;45.20;;;;;;4948537;28;92445;-63
2024/01/20 06:51:03;;;;;;;3.08;2.60;;;19.30;45.20;;;;;;4954201;28;92919;-63
2024/01/20 06:53:31;;;;;;;3.05;2.75;;;19.30;45.20;;;;;;4947127;28;93877;-63
2024/01/20 06:55:57;;;;;;;2.88;2.50;;;19.30;45.20;;;;;;4954547;28;92892;-62
2024/01/20 06:58:23;;;;;;;2.28;2.08;;;19.20;45.00;;;;;;4938769;28;92932;-64
2024/01/20 07:00:49;;;;;;;2.97;2.42;;;19.20;45.00;;;;;;4958845;28;91631;-63
2024/01/20 07:03:15;;;;;;;3.03;2.30;;;19.30;45.20;;;;;;4949855;28;92893;-63
2024/01/20 07:05:41;;;;;;;3.25;2.88;;;19.20;45.10;;;;;;4949376;28;93065;-63
2024/01/20 07:08:07;;;;;;;2.53;2.30;;;19.20;45.10;;;;;;4948823;28;93403;-63
2024/01/20 07:10:34;;;;;;;2.97;2.65;;;19.20;45.30;;;;;;4952645;28;93758;-63
2024/01/20 07:13:00;;;;;;;3.53;2.95;;;19.20;45.10;;;;;;4950002;28;93125;-62
2024/01/20 07:15:26;;;;;;;4.13;2.28;;;19.30;45.20;;;;;;4949522;28;92812;-63
2024/01/20 07:17:56;;;;;;;4.00;2.85;;;19.30;44.80;;;;;;4953559;28;92545;-63
2024/01/20 07:20:22;;;;;;;2.90;2.40;;;19.30;44.90;;;;;;4960975;28;92818;-63
2024/01/20 07:22:49;;;;;;;2.55;2.28;;;19.30;45.30;;;;;;4943439;28;92788;-63
2024/01/20 07:25:15;;;;;;;4.47;2.63;;;19.30;45.50;;;;;;4950073;28;92810;-62
2024/01/20 07:27:42;;;;;;;2.83;2.53;;;19.30;45.60;;;;;;4949687;28;92172;-63
2024/01/20 07:30:09;;;;;;;2.78;2.20;;;19.30;45.70;;;;;;4945729;28;92238;-63
2024/01/20 07:32:35;;;;;;;4.07;2.53;;;19.40;45.50;;;;;;4953823;28;95258;-63
2024/01/20 07:35:01;;;;;;;3.25;2.50;;;19.40;45.60;;;;;;4945519;28;93180;-63
2024/01/20 07:37:27;;;;;;;4.10;2.60;;;19.40;46.00;;;;;;4953204;28;93015;-63
2024/01/20 07:39:53;;;;;;;4.05;2.30;;;19.50;46.30;;;;;;4948906;28;92686;-63
2024/01/20 07:42:28;;;;;;;2.67;2.22;;;19.60;46.70;;;;;;5005637;27;86281;-63
2024/01/20 07:44:53;;;;;;;3.17;2.50;;;19.70;46.70;;;;;;4960935;28;87017;-63
2024/01/20 07:47:19;;;;;;;2.83;2.10;;;19.80;46.70;;;;;;5002018;28;86600;-64
2024/01/20 07:49:45;;;;;;;4.50;2.47;;;19.90;46.80;;;;;;4974312;28;86474;-63
2024/01/20 07:52:13;;;;;;;3.05;2.42;;;20.00;46.70;;;;;;4970888;28;86685;-63
2024/01/20 07:54:39;;;;;;;4.80;2.65;;;20.10;46.30;;;;;;4975189;28;86645;-63
2024/01/20 07:57:05;;;;;;;3.50;2.22;;;20.20;46.20;;;;;;4974335;28;86443;-63
2024/01/20 07:59:31;;;;;;;2.28;1.60;;;20.20;46.00;;;;;;4967351;28;86465;-64
2024/01/20 08:01:57;;;;;;;3.45;1.63;;;20.30;46.10;;;;;;4969308;28;86865;-64
2024/01/20 08:04:23;;;;;;;2.33;2.13;;;20.30;46.20;;;;;;4975262;28;86574;-63
2024/01/20 08:06:48;;;;;;;3.13;2.00;;;20.40;45.90;;;;;;4973399;28;86344;-64
2024/01/20 08:09:15;;;;;;;2.38;1.85;;;20.30;45.60;;;;;;4973073;28;89732;-64
2024/01/20 08:11:40;;;;;;;3.42;2.03;;;20.30;45.60;;;;;;4988947;28;86784;-65
2024/01/20 08:14:06;;;;;;;2.38;1.63;;;20.40;45.40;;;;;;4977354;28;85972;-64
2024/01/20 08:16:32;;;;;;;2.70;2.30;;;20.30;45.10;;;;;;4970954;28;86613;-65
2024/01/20 08:18:57;;;;;;;4.35;2.10;;;20.30;45.30;;;;;;4974996;28;86629;-64
2024/01/20 08:21:23;;;;;;;2.20;2.00;;;20.30;45.30;;;;;;4970974;28;86156;-64
2024/01/20 08:23:50;;;;;;;15.35;4.20;;;20.20;45.30;;;;;;4975996;28;85731;-65
2024/01/20 08:26:16;;;;;;;5.97;2.42;;;20.20;45.50;;;;;;4973207;28;86221;-64
2024/01/20 08:28:41;;;;;;;5.97;2.25;;;20.30;45.50;;;;;;4972153;28;86858;-64
2024/01/20 08:31:07;;;;;;;3.33;2.45;;;20.20;45.70;;;;;;4972898;28;87377;-64
2024/01/20 08:33:33;;;;;;;9.93;3.55;;;20.30;45.70;;;;;;4969441;28;86488;-62
2024/01/20 08:35:59;;;;;;;3.78;2.28;;;20.30;45.80;;;;;;4981960;28;86393;-63
2024/01/20 08:38:25;;;;;;;3.58;2.22;;;20.40;45.70;;;;;;4972574;28;86876;-64
2024/01/20 08:40:51;;;;;;;3.22;2.25;;;20.40;45.80;;;;;;4967910;28;87093;-64
2024/01/20 08:43:18;;;;;;;6.88;2.60;;;20.40;45.80;;;;;;4971924;28;86941;-64
2024/01/20 08:45:43;;;;;;;4.47;2.28;;;20.40;45.90;;;;;;4971647;28;86262;-64
2024/01/20 08:48:11;;;;;;;7.43;3.13;;;20.40;45.90;;;;;;4974395;28;87002;-65
2024/01/20 08:50:37;;;;;;;6.70;2.72;;;20.40;46.10;;;;;;4958882;28;88202;-64
2024/01/20 08:53:03;;;;;;;5.50;2.40;;;20.50;46.00;;;;;;4957282;28;86603;-64
2024/01/20 08:55:30;;;;;;;5.55;2.47;;;20.50;45.90;;;;;;4959180;28;86271;-64
2024/01/20 08:57:56;;;;;;;9.48;2.70;;;20.50;45.80;;;;;;4957047;28;86967;-65
2024/01/20 09:00:22;;;;;;;6.43;2.92;;;20.50;45.90;;;;;;4969772;28;86979;-64
2024/01/20 09:02:48;;;;;;;7.07;2.88;;;20.50;46.00;;;;;;4959517;28;86498;-65
2024/01/20 09:05:17;;;;;;;4.70;2.55;;;20.50;46.10;;;;;;4959010;28;86127;-65
2024/01/20 09:07:43;;;;;;;6.25;2.60;;;20.40;46.00;;;;;;4957409;28;88648;-64
2024/01/20 09:10:09;;;;;;;7.30;3.05;;;20.40;46.10;;;;;;4954575;28;86709;-64
2024/01/20 09:12:35;;;;;;;4.70;2.85;;;20.50;46.00;;;;;;4940738;28;86300;-64
2024/01/20 09:15:02;;;;;;;5.63;2.50;;;20.50;45.90;;;;;;4956429;28;86763;-65
2024/01/20 09:17:28;;;;;;;5.38;3.13;;;20.50;46.00;;;;;;4956706;28;86863;-64
2024/01/20 09:19:53;;;;;;;8.02;2.97;;;20.50;46.00;;;;;;4957155;28;86640;-64
2024/01/20 09:22:19;;;;;;;9.68;2.80;;;20.50;45.90;;;;;;4958226;28;85835;-65
2024/01/20 09:24:45;;;;;;;9.80;2.88;;;20.50;46.00;;;;;;4959995;28;86504;-65
2024/01/20 09:27:12;;;;;;;6.50;2.33;;;20.60;45.90;;;;;;4957639;28;89974;-65
2024/01/20 09:29:38;;;;;;;5.35;2.63;;;20.50;45.90;;;;;;4958215;28;86384;-65
2024/01/20 09:32:04;;;;;;;4.60;2.47;;;20.50;46.10;;;;;;4953140;28;86573;-64
2024/01/20 09:34:30;;;;;;;3.95;2.10;;;20.60;46.00;;;;;;4958654;28;86430;-65
2024/01/20 09:36:56;;;;;;;14.80;4.57;;;20.50;46.00;;;;;;4991866;28;86224;-64
2024/01/20 09:39:22;;;;;;;8.98;3.95;;;20.60;44.80;;;;;;4958897;28;87198;-64
2024/01/20 09:41:48;;;;;;;11.13;3.75;;;20.60;44.70;;;;;;4954596;28;86108;-65
2024/01/20 09:44:15;;;;;;;7.72;3.60;;;20.60;44.90;;;;;;4972302;28;86345;-64
2024/01/20 09:46:41;;;;;;;13.00;4.47;;;20.60;45.30;;;;;;4954319;28;86217;-64
2024/01/20 09:49:06;;;;;;;9.07;3.28;;;20.60;45.30;;;;;;4958867;28;87105;-65
2024/01/20 09:51:32;;;;;;;8.38;3.38;;;20.60;45.40;;;;;;4958326;28;86579;-64
2024/01/20 09:53:59;;;;;;;9.00;3.25;;;20.70;45.50;;;;;;4960593;28;85911;-65
2024/01/20 09:56:26;;;;;;;6.50;3.28;;;20.70;45.40;;;;;;4959886;28;87033;-65
2024/01/20 09:58:56;;;;;;;8.15;3.88;;;20.70;44.50;;;;;;4986694;28;86305;-64
2024/01/20 10:01:22;;;;;;;;;;;20.70;44.40;;;;;;4957749;28;85865;-65
2024/01/20 10:03:48;;;;;;;8.77;3.97;;;20.70;44.40;;;;;;4959124;28;86319;-65
2024/01/20 10:06:13;;;;;;;8.65;3.53;;;20.70;44.80;;;;;;4958557;28;87489;-65
2024/01/20 10:08:39;;;;;;;7.53;3.55;;;20.70;44.70;;;;;;4960977;28;86316;-64
2024/01/20 10:11:06;;;;;;;6.57;3.30;;;20.70;44.80;;;;;;4970862;28;85991;-65
2024/01/20 10:13:32;;;;;;;8.48;3.05;;;20.70;45.00;;;;;;4986024;28;86572;-64
2024/01/20 10:15:58;;;;;;;5.78;3.33;;;20.80;45.70;;;;;;4972445;28;86253;-64
2024/01/20 10:18:24;;;;;;;16.23;4.18;;;20.80;44.90;;;;;;4961332;28;86041;-64
2024/01/20 10:21:03;;;;;;;10.82;4.68;;;20.70;44.10;;;;;;4951925;28;86290;-64
2024/01/20 10:23:29;;;;;;;11.60;4.43;;;20.70;43.80;;;;;;4958181;28;85992;-64
2024/01/20 10:26:05;;;;;;;7.95;3.17;;;20.70;43.70;;;;;;4990654;28;86795;-64
2024/01/20 10:28:32;;;;;;;10.45;3.85;;;20.70;44.20;;;;;;4958219;28;85898;-61
2024/01/20 10:30:58;;;;;;;9.45;4.25;;;20.70;44.10;;;;;;4953383;28;86252;-61
2024/01/20 10:33:24;;;;;;;11.73;4.43;;;20.70;44.10;;;;;;4955466;28;85704;-64
2024/01/20 10:35:52;;;;;;;11.35;4.15;;;20.70;43.80;;;;;;4958358;28;86786;-64
2024/01/20 10:38:22;;;;;;;10.32;4.28;;;20.80;44.20;;;;;;4960223;28;87038;-64
2024/01/20 10:40:53;;;;;;;8.10;3.50;;;20.80;44.40;;;;;;4957453;28;86198;-64
2024/01/20 10:43:19;;;;;;;10.90;3.50;;;20.80;44.50;;;;;;4955951;28;86130;-64
2024/01/20 10:45:59;;;;;;;8.90;3.80;;;20.80;44.40;;;;;;4972961;28;88254;-64
2024/01/20 10:48:27;;;;;;;11.35;4.40;;;20.80;44.50;;;;;;4956858;28;86036;-64
2024/01/20 10:50:57;;;;;;;15.25;5.20;;;20.80;44.20;;;;;;4959506;28;86514;-65
2024/01/20 10:53:25;;;;;;;8.80;4.07;;;20.90;43.20;;;;;;4960597;28;86290;-64
2024/01/20 10:55:51;;;;;;;12.52;4.28;;;20.90;42.50;;;;;;4954042;28;87290;-64
2024/01/20 10:58:23;;;;;;;7.25;3.95;;;20.90;43.30;;;;;;4951261;28;86726;-63
2024/01/20 11:00:50;;;;;;;9.30;3.97;;;20.90;43.60;;;;;;4955199;28;86299;-64
2024/01/20 11:03:16;;;;;;;10.43;3.85;;;20.90;43.80;;;;;;4959869;28;86162;-64
2024/01/20 11:05:47;;;;;;;9.48;4.15;;;20.90;44.20;;;;;;4958298;28;87310;-64
2024/01/20 11:08:13;;;;;;;7.45;3.60;;;21.00;44.10;;;;;;4954178;28;91350;-64
2024/01/20 11:10:45;;;;;;;8.93;3.50;;;21.00;44.50;;;;;;4955729;28;86101;-64
2024/01/20 11:13:13;;;;;;;11.75;3.88;;;21.00;44.80;;;;;;4955693;28;85898;-63
2024/01/20 11:15:47;;;;;;;7.50;3.40;;;21.00;45.10;;;;;;4955060;28;86897;-63
2024/01/20 11:18:22;;;;;;;9.25;3.95;;;21.00;45.40;;;;;;4988460;28;87296;-64
2024/01/20 11:20:57;;;;;;;11.27;4.18;;;21.00;45.30;;;;;;4956201;28;85641;-64
2024/01/20 11:23:29;;;;;;;10.95;4.35;;;21.00;45.30;;;;;;4958442;28;86248;-64
2024/01/20 11:25:58;;;;;;;7.30;3.72;;;21.00;45.30;;;;;;4955612;28;86574;-64
2024/01/20 11:28:26;;;;;;;5.50;3.10;;;21.00;45.30;;;;;;4955380;28;86271;-64
2024/01/20 11:30:52;;;;;;;9.15;3.55;;;21.00;45.10;;;;;;4956704;28;86329;-64
2024/01/20 11:33:17;;;;;;;9.48;3.75;;;21.10;45.30;;;;;;4953092;28;86657;-64
2024/01/20 11:35:43;;;;;;;9.85;3.08;;;21.10;46.00;;;;;;4959055;28;86899;-64
2024/01/20 11:38:13;;;;;;;7.68;3.40;;;21.10;45.20;;;;;;4955099;28;91506;-64
2024/01/20 11:40:39;;;;;;;10.18;3.47;;;21.10;45.20;;;;;;4969445;28;86054;-64
2024/01/20 11:43:06;;;;;;;7.97;3.20;;;21.10;45.40;;;;;;4953083;28;86572;-64
2024/01/20 11:45:32;;;;;;;8.52;4.03;;;21.10;45.70;;;;;;4957330;28;85888;-63
2024/01/20 11:47:59;;;;;;;8.27;3.35;;;21.10;45.80;;;;;;4953603;28;86381;-63
2024/01/20 11:50:25;;;;;;;9.70;4.15;;;21.10;45.90;;;;;;4959223;28;86984;-64
2024/01/20 11:52:51;;;;;;;7.20;3.67;;;21.10;45.80;;;;;;4948015;28;86472;-63
2024/01/20 11:55:17;;;;;;;6.47;3.17;;;21.10;45.50;;;;;;4954280;28;86730;-64
2024/01/20 11:57:43;;;;;;;7.60;3.30;;;21.10;45.60;;;;;;4950642;28;86505;-64
2024/01/20 12:00:11;;;;;;;8.85;3.50;;;21.20;45.80;;;;;;4954626;28;85933;-64
2024/01/20 12:02:37;;;;;;;9.98;3.42;;;21.20;46.00;;;;;;4955153;28;86440;-63
2024/01/20 12:05:03;;;;;;;7.30;3.60;;;21.20;46.00;;;;;;4960084;28;86785;-65
2024/01/20 12:07:29;;;;;;;5.88;3.05;;;21.20;45.80;;;;;;4954370;28;86436;-64
2024/01/20 12:09:56;;;;;;;7.85;4.00;;;21.20;45.90;;;;;;4954645;28;86337;-64
2024/01/20 12:12:22;;;;;;;6.93;3.35;;;21.20;45.70;;;;;;4953908;28;85964;-64
2024/01/20 12:14:49;;;;;;;6.70;4.05;;;21.20;45.80;;;;;;4950905;28;87682;-64
2024/01/20 12:17:15;;;;;;;7.43;3.75;;;21.20;45.90;;;;;;4975643;28;86790;-64
2024/01/20 12:19:41;;;;;;;9.10;3.55;;;21.20;45.80;;;;;;4956862;28;86108;-64
2024/01/20 12:22:09;;;;;;;7.80;3.45;;;21.20;45.70;;;;;;4951371;28;86224;-64
2024/01/20 12:24:35;;;;;;;8.13;3.10;;;21.20;45.60;;;;;;4951404;28;88174;-63
2024/01/20 12:27:05;;;;;;;5.53;3.08;;;21.20;45.60;;;;;;4954776;28;86452;-64
2024/01/20 12:29:31;;;;;;;5.18;3.05;;;21.20;45.70;;;;;;4945472;28;86502;-64
2024/01/20 12:31:58;;;;;;;8.18;3.25;;;21.20;45.80;;;;;;4960714;28;86179;-64
2024/01/20 12:34:27;;;;;;;7.72;3.22;;;21.20;45.70;;;;;;4961753;28;87498;-64
2024/01/20 12:36:54;;;;;;;6.93;3.10;;;21.20;45.60;;;;;;4948436;28;86296;-64
2024/01/20 12:39:21;;;;;;;7.15;2.92;;;21.30;45.50;;;;;;4952188;28;87020;-64
2024/01/20 12:41:48;;;;;;;5.47;2.83;;;21.30;45.40;;;;;;4955059;28;86693;-63